Time;durP1;ratioP1;P1;durP2;ratioP2;P2;SDS_P1;SDS_P2;PMS_P1;PMS_P2;Temp;Humidity;BMP_temperature;BMP_pressure;BME280_temperature;BME280_humidity;BME280_pressure;Samples;Min_cycle;Max_cycle;Signal;HPM_P1;HPM_P2
2022/08/25 00:01:21;;;;;;;1999.90;999.90;;;18.10;99.90;;;;;;5082423;28;20039;-74
2022/08/25 00:03:47;;;;;;;1999.90;999.90;;;18.10;99.90;;;;;;5069643;28;20088;-75
2022/08/25 00:06:14;;;;;;;1999.90;999.90;;;18.00;99.90;;;;;;5072498;28;20043;-75
2022/08/25 00:08:40;;;;;;;1999.90;999.90;;;18.10;99.90;;;;;;5071037;28;20040;-73
2022/08/25 00:11:10;;;;;;;1999.90;999.90;;;18.10;99.90;;;;;;5056367;28;20036;-73
2022/08/25 00:13:39;;;;;;;1999.90;999.90;;;18.00;99.90;;;;;;5050357;28;20091;-73
2022/08/25 00:16:05;;;;;;;1999.90;999.90;;;18.10;99.90;;;;;;5065333;28;20032;-73
2022/08/25 00:18:30;;;;;;;1999.90;999.90;;;18.10;99.90;;;;;;5072478;28;20047;-74
2022/08/25 00:20:56;;;;;;;1999.90;999.90;;;18.10;99.90;;;;;;5054333;28;20036;-73
2022/08/25 00:23:23;;;;;;;1999.90;999.90;;;18.10;99.90;;;;;;5069558;28;20074;-74
2022/08/25 00:25:49;;;;;;;1999.90;999.90;;;18.10;99.90;;;;;;5052553;28;20051;-74
2022/08/25 00:28:15;;;;;;;1999.90;999.90;;;18.10;99.90;;;;;;5070749;28;20134;-74
2022/08/25 00:30:42;;;;;;;1999.90;999.90;;;18.10;99.90;;;;;;5069960;28;20098;-75
2022/08/25 00:33:08;;;;;;;1999.90;999.90;;;18.20;99.90;;;;;;5059465;28;20039;-74
2022/08/25 00:35:34;;;;;;;1999.90;999.90;;;18.20;99.90;;;;;;5059529;28;20031;-74
2022/08/25 00:38:00;;;;;;;1999.90;999.90;;;18.20;99.90;;;;;;5069113;28;20043;-74
2022/08/25 00:40:27;;;;;;;1999.90;999.90;;;18.20;99.90;;;;;;5055706;28;20043;-76
2022/08/25 00:42:53;;;;;;;1999.90;999.90;;;18.30;99.90;;;;;;5071771;28;20264;-75
2022/08/25 00:45:19;;;;;;;1999.90;999.90;;;18.30;99.90;;;;;;5053465;28;20085;-75
2022/08/25 00:47:44;;;;;;;1999.90;999.90;;;18.30;99.90;;;;;;5067915;28;20040;-74
2022/08/25 00:50:11;;;;;;;1999.90;999.90;;;18.30;99.90;;;;;;5065322;28;20048;-75
2022/08/25 00:52:46;;;;;;;1999.90;999.90;;;18.40;99.90;;;;;;5071726;28;20035;-75
2022/08/25 00:55:20;;;;;;;1999.90;999.90;;;18.30;99.90;;;;;;5081967;28;20369;-74
2022/08/25 00:57:50;;;;;;;1999.90;999.90;;;18.40;99.90;;;;;;5049891;28;20047;-74
2022/08/25 01:00:32;;;;;;;1999.90;999.90;;;18.40;99.90;;;;;;5070363;28;20051;-74
2022/08/25 01:02:58;;;;;;;1999.90;999.90;;;18.40;99.90;;;;;;5064615;28;20055;-74
2022/08/25 01:05:25;;;;;;;1999.90;999.90;;;18.40;99.90;;;;;;5048577;28;20301;-75
2022/08/25 01:07:54;;;;;;;1999.90;999.90;;;18.40;99.90;;;;;;5069558;28;20442;-74
2022/08/25 01:10:22;;;;;;;1999.90;999.90;;;18.40;99.90;;;;;;5052964;28;20047;-76
2022/08/25 01:12:49;;;;;;;1999.90;999.90;;;18.40;99.90;;;;;;5061371;28;20037;-74
2022/08/25 01:15:15;;;;;;;1999.90;999.90;;;18.40;99.90;;;;;;5072583;28;20032;-75
2022/08/25 01:17:53;;;;;;;1999.90;999.90;;;18.40;99.90;;;;;;5070723;28;20089;-75
2022/08/25 01:20:21;;;;;;;1999.90;999.90;;;18.40;99.90;;;;;;5075125;28;20039;-75
2022/08/25 01:22:49;;;;;;;1999.90;999.90;;;18.40;99.90;;;;;;5064366;28;20051;-75
2022/08/25 01:25:57;;;;;;;1999.90;999.90;;;18.40;99.90;;;;;;5049517;28;20664;-74
2022/08/25 01:28:23;;;;;;;1999.90;999.90;;;18.40;99.90;;;;;;5065352;28;20044;-74
2022/08/25 01:30:49;;;;;;;1999.90;999.90;;;18.40;99.90;;;;;;5063816;28;20083;-75
2022/08/25 01:33:16;;;;;;;1999.90;999.90;;;18.30;99.90;;;;;;5071783;28;20482;-74
2022/08/25 01:35:42;;;;;;;1999.90;999.90;;;18.30;99.90;;;;;;5052512;28;20044;-75
2022/08/25 01:38:08;;;;;;;1999.90;999.90;;;18.30;99.90;;;;;;5068103;28;20067;-76
2022/08/25 01:40:36;;;;;;;1999.90;999.90;;;18.30;99.90;;;;;;5051087;28;20694;-77
2022/08/25 01:43:14;;;;;;;1999.90;999.90;;;18.30;99.90;;;;;;5069627;28;20063;-75
2022/08/25 01:45:43;;;;;;;1999.90;999.90;;;18.30;99.90;;;;;;5067502;28;20048;-75
2022/08/25 01:48:11;;;;;;;1999.90;999.90;;;18.30;99.90;;;;;;5057180;28;20055;-74
2022/08/25 01:50:37;;;;;;;1999.90;999.90;;;18.30;99.90;;;;;;5049996;28;20076;-75
2022/08/25 01:53:26;;;;;;;1999.90;999.90;;;18.30;99.90;;;;;;5052206;28;20076;-75
2022/08/25 01:55:54;;;;;;;1999.90;999.90;;;18.20;99.90;;;;;;5082956;28;20091;-75
2022/08/25 01:58:26;;;;;;;1999.90;999.90;;;18.20;99.90;;;;;;5068460;28;20076;-74
2022/08/25 02:00:54;;;;;;;1999.90;999.90;;;18.20;99.90;;;;;;5052222;28;20036;-74
2022/08/25 02:03:21;;;;;;;1999.90;999.90;;;18.20;99.90;;;;;;5073177;28;20085;-74
2022/08/25 02:05:47;;;;;;;1999.90;999.90;;;18.20;99.90;;;;;;5076043;28;20060;-75
2022/08/25 02:08:13;;;;;;;1999.90;999.90;;;18.20;99.90;;;;;;5047944;28;20039;-74
2022/08/25 02:10:39;;;;;;;1999.90;999.90;;;18.20;99.90;;;;;;5066343;28;20036;-74
2022/08/25 02:13:06;;;;;;;1999.90;999.90;;;18.20;99.90;;;;;;5066018;28;20036;-74
2022/08/25 02:15:32;;;;;;;1999.90;999.90;;;18.20;99.90;;;;;;5058959;28;20036;-74
2022/08/25 02:17:58;;;;;;;1999.90;999.90;;;18.20;99.90;;;;;;5077389;28;20036;-73
2022/08/25 02:20:25;;;;;;;1999.90;999.90;;;18.10;99.90;;;;;;5061196;28;20048;-74
2022/08/25 02:22:51;;;;;;;1999.90;999.90;;;18.10;99.90;;;;;;5065727;28;20047;-74
2022/08/25 02:25:18;;;;;;;1999.90;999.90;;;18.10;99.90;;;;;;5047708;28;20400;-74
2022/08/25 02:27:44;;;;;;;1999.90;999.90;;;18.10;99.90;;;;;;5063182;28;20039;-74
2022/08/25 02:30:12;;;;;;;1999.90;999.90;;;18.10;99.90;;;;;;5054665;28;20075;-74
2022/08/25 02:32:38;;;;;;;1999.90;999.90;;;18.10;99.90;;;;;;5044565;28;20040;-74
2022/08/25 02:35:05;;;;;;;1999.90;999.90;;;18.10;99.90;;;;;;5069414;28;20054;-74
2022/08/25 02:37:32;;;;;;;1999.90;999.90;;;18.10;99.90;;;;;;5077509;28;20040;-74
2022/08/25 02:39:58;;;;;;;1999.90;999.90;;;18.00;99.90;;;;;;5069626;28;20096;-74
2022/08/25 02:42:23;;;;;;;1999.90;999.90;;;18.00;99.90;;;;;;5061302;28;20395;-75
2022/08/25 02:44:49;;;;;;;1999.90;999.90;;;18.00;99.90;;;;;;5070019;28;20045;-74
2022/08/25 02:47:15;;;;;;;1999.90;999.90;;;18.00;99.90;;;;;;5068266;28;20052;-75
2022/08/25 02:49:41;;;;;;;1999.90;999.90;;;18.00;99.90;;;;;;5052390;28;20401;-74
2022/08/25 02:52:07;;;;;;;1999.90;999.90;;;18.00;99.90;;;;;;5052206;28;20063;-74
2022/08/25 02:54:33;;;;;;;1999.90;999.90;;;17.90;99.90;;;;;;5060793;28;20032;-73
2022/08/25 02:56:59;;;;;;;1999.90;999.90;;;17.90;99.90;;;;;;5065357;28;20072;-74
2022/08/25 02:59:24;;;;;;;1999.90;999.90;;;17.90;99.90;;;;;;5072527;28;20481;-74
2022/08/25 03:01:50;;;;;;;1999.90;999.90;;;17.90;99.90;;;;;;5060037;28;20128;-76
2022/08/25 03:04:16;;;;;;;1999.90;999.90;;;17.90;99.90;;;;;;5077871;28;20041;-75
2022/08/25 03:06:41;;;;;;;1999.90;999.90;;;17.90;99.90;;;;;;5067265;28;20048;-75
2022/08/25 03:09:08;;;;;;;1999.90;999.90;;;17.90;99.90;;;;;;5049151;28;20119;-75
2022/08/25 03:11:34;;;;;;;1999.90;999.90;;;17.90;99.90;;;;;;5067658;28;20452;-75
2022/08/25 03:14:00;;;;;;;1999.90;999.90;;;17.90;99.90;;;;;;5060847;28;20082;-75
2022/08/25 03:16:26;;;;;;;1999.90;999.90;;;17.90;99.90;;;;;;5067858;28;20060;-76
2022/08/25 03:18:52;;;;;;;1999.90;999.90;;;17.90;99.90;;;;;;5067365;28;20032;-76
2022/08/25 03:21:17;;;;;;;1999.90;999.90;;;17.80;99.90;;;;;;5042642;28;20048;-77
2022/08/25 03:23:43;;;;;;;1999.90;999.90;;;17.90;99.90;;;;;;5053326;28;20492;-77
2022/08/25 03:28:54;;;;;;;1999.90;999.90;;;17.80;99.90;;;;;;5064884;28;20375;-77
2022/08/25 03:31:22;;;;;;;1999.90;999.90;;;17.80;99.90;;;;;;5078077;28;20131;-77
2022/08/25 03:33:48;;;;;;;1999.90;999.90;;;17.80;99.90;;;;;;5052699;28;20068;-76
2022/08/25 03:36:13;;;;;;;1999.90;999.90;;;17.80;99.90;;;;;;5051032;28;20039;-77
2022/08/25 03:38:40;;;;;;;1999.90;999.90;;;17.70;99.90;;;;;;5081252;28;20403;-76
2022/08/25 03:41:17;;;;;;;1999.90;999.90;;;17.70;99.90;;;;;;5061065;28;20152;-77
2022/08/25 03:43:43;;;;;;;1999.90;999.90;;;17.70;99.90;;;;;;5068275;28;20040;-77
2022/08/25 03:46:19;;;;;;;1999.90;999.90;;;17.70;99.90;;;;;;5059438;28;20066;-75
2022/08/25 03:48:45;;;;;;;1999.90;999.90;;;17.70;99.90;;;;;;5071431;28;20411;-75
2022/08/25 03:51:11;;;;;;;1999.90;999.90;;;17.70;99.90;;;;;;5075473;28;20071;-74
2022/08/25 03:53:36;;;;;;;1999.90;999.90;;;17.70;99.90;;;;;;5054432;28;20075;-74
2022/08/25 03:56:02;;;;;;;1999.90;999.90;;;17.70;99.90;;;;;;5069021;28;20554;-74
2022/08/25 03:58:28;;;;;;;1999.90;999.90;;;17.70;99.90;;;;;;5050315;28;20044;-74
2022/08/25 04:00:55;;;;;;;1999.90;999.90;;;17.70;99.90;;;;;;5070881;28;20484;-73
2022/08/25 04:03:21;;;;;;;1999.90;999.90;;;17.70;99.90;;;;;;5075446;28;20044;-74
2022/08/25 04:05:46;;;;;;;1999.90;999.90;;;17.70;99.90;;;;;;5054778;28;20150;-74
2022/08/25 04:08:12;;;;;;;1999.90;999.90;;;17.60;99.90;;;;;;5051871;28;20044;-74
2022/08/25 04:10:37;;;;;;;1999.90;999.90;;;17.60;99.90;;;;;;5056250;28;20047;-74
2022/08/25 04:13:03;;;;;;;1999.90;999.90;;;17.60;99.90;;;;;;5070505;28;20044;-74
2022/08/25 04:15:29;;;;;;;1999.90;999.90;;;17.60;99.90;;;;;;5070203;28;20036;-74
2022/08/25 04:17:55;;;;;;;1999.90;999.90;;;17.60;99.90;;;;;;5066684;28;20047;-74
2022/08/25 04:20:20;;;;;;;1999.90;999.90;;;17.60;99.90;;;;;;5066745;28;20055;-74
2022/08/25 04:22:46;;;;;;;1999.90;999.90;;;17.60;99.90;;;;;;5055559;28;20101;-76
2022/08/25 04:25:12;;;;;;;1999.90;999.90;;;17.60;99.90;;;;;;5060834;28;20553;-75
2022/08/25 04:27:38;;;;;;;1999.90;999.90;;;17.60;99.90;;;;;;5059113;28;20126;-74
2022/08/25 04:30:05;;;;;;;1999.90;999.90;;;17.50;99.90;;;;;;5053010;28;20054;-74
2022/08/25 04:32:59;;;;;;;1999.90;999.90;;;17.60;99.90;;;;;;5069795;28;20040;-74
2022/08/25 04:35:24;;;;;;;1999.90;999.90;;;17.60;99.90;;;;;;5045000;28;20048;-74
2022/08/25 04:37:50;;;;;;;1999.90;999.90;;;17.60;99.90;;;;;;5070227;28;20134;-74
2022/08/25 04:40:16;;;;;;;1999.90;999.90;;;17.60;99.90;;;;;;5067929;28;20062;-75
2022/08/25 04:42:43;;;;;;;1999.90;999.90;;;17.60;99.90;;;;;;5068505;28;20567;-74
2022/08/25 04:45:09;;;;;;;1999.90;999.90;;;17.60;99.90;;;;;;5051323;28;20476;-74
2022/08/25 04:47:38;;;;;;;1999.90;999.90;;;17.60;99.90;;;;;;5066280;28;20036;-75
2022/08/25 04:50:06;;;;;;;1999.90;999.90;;;17.60;99.90;;;;;;5070187;28;20067;-75
2022/08/25 04:52:32;;;;;;;1999.90;999.90;;;17.60;99.90;;;;;;5061400;28;20400;-75
2022/08/25 04:54:58;;;;;;;1999.90;999.90;;;17.60;99.90;;;;;;5056793;28;20044;-75
2022/08/25 04:57:25;;;;;;;1999.90;999.90;;;17.60;99.90;;;;;;5077259;28;20040;-74
2022/08/25 04:59:51;;;;;;;1999.90;999.90;;;17.60;99.90;;;;;;5050725;28;20075;-75
2022/08/25 05:02:16;;;;;;;1999.90;999.90;;;17.60;99.90;;;;;;5041463;28;20082;-75
2022/08/25 05:04:42;;;;;;;1999.90;999.90;;;17.60;99.90;;;;;;5046755;28;20435;-75
2022/08/25 05:07:07;;;;;;;1999.90;999.90;;;17.60;99.90;;;;;;5041470;28;20075;-75
2022/08/25 05:09:33;;;;;;;1999.90;999.90;;;17.60;99.90;;;;;;5043916;28;20040;-75
2022/08/25 05:12:01;;;;;;;1999.90;999.90;;;17.60;99.90;;;;;;5054329;28;20043;-75
2022/08/25 05:14:26;;;;;;;1999.90;999.90;;;17.60;99.90;;;;;;5044179;28;20392;-75
2022/08/25 05:16:53;;;;;;;1999.90;999.90;;;17.70;99.90;;;;;;5066410;28;20043;-75
2022/08/25 05:19:19;;;;;;;1999.90;999.90;;;17.70;99.90;;;;;;5070504;28;20517;-75
2022/08/25 05:21:44;;;;;;;1999.90;999.90;;;17.70;99.90;;;;;;5077071;28;20043;-75
2022/08/25 05:24:11;;;;;;;1999.90;999.90;;;17.80;99.90;;;;;;5067508;28;20040;-75
2022/08/25 05:26:37;;;;;;;1999.90;999.90;;;17.80;99.90;;;;;;5067935;28;20051;-75
2022/08/25 05:29:04;;;;;;;1999.90;999.90;;;17.90;99.90;;;;;;5075065;28;20396;-75
2022/08/25 05:31:30;;;;;;;1999.90;999.90;;;17.90;99.90;;;;;;5065383;28;20059;-75
2022/08/25 05:33:56;;;;;;;1999.90;999.90;;;17.90;99.90;;;;;;5067409;28;20502;-75
2022/08/25 05:36:24;;;;;;;1999.90;999.90;;;18.00;99.90;;;;;;5067400;28;20123;-75
2022/08/25 05:38:50;;;;;;;1999.90;999.90;;;18.10;99.90;;;;;;5064166;28;20048;-75
2022/08/25 05:41:19;;;;;;;1999.90;999.90;;;18.10;99.90;;;;;;5057180;28;20403;-76
2022/08/25 05:43:47;;;;;;;1999.90;999.90;;;18.10;99.90;;;;;;5078573;28;20115;-75
2022/08/25 05:46:14;;;;;;;1999.90;999.90;;;18.20;99.90;;;;;;5054338;28;20453;-76
2022/08/25 05:48:40;;;;;;;1999.90;999.90;;;18.20;99.90;;;;;;5052218;28;20149;-76
2022/08/25 05:51:08;;;;;;;1999.90;999.90;;;18.30;99.90;;;;;;5085050;28;20071;-76
2022/08/25 05:53:35;;;;;;;1999.90;999.90;;;18.30;99.90;;;;;;5051511;28;20043;-76
2022/08/25 05:56:01;;;;;;;1999.90;999.90;;;18.40;99.90;;;;;;5054873;28;20032;-76
2022/08/25 05:58:28;;;;;;;1999.90;999.90;;;18.40;99.90;;;;;;5053342;28;20376;-75
2022/08/25 06:00:54;;;;;;;1999.90;999.90;;;18.50;99.90;;;;;;5067487;28;20716;-76
2022/08/25 06:03:20;;;;;;;1999.90;999.90;;;18.60;99.90;;;;;;5068795;28;20048;-75
2022/08/25 06:05:46;;;;;;;1999.90;999.90;;;18.60;99.90;;;;;;5064543;28;20096;-76
2022/08/25 06:08:12;;;;;;;1999.90;999.90;;;18.70;99.90;;;;;;5073076;28;20036;-76
2022/08/25 06:10:38;;;;;;;1999.90;999.90;;;18.80;99.90;;;;;;5072190;28;20054;-76
2022/08/25 06:13:04;;;;;;;1999.90;999.90;;;18.80;99.90;;;;;;5074033;28;20040;-76
2022/08/25 06:15:30;;;;;;;1999.90;999.90;;;18.90;99.90;;;;;;5066882;28;20071;-76
2022/08/25 06:18:00;;;;;;;1999.90;999.90;;;19.10;99.90;;;;;;5064830;28;20078;-76
2022/08/25 06:20:27;;;;;;;1999.90;999.90;;;19.10;99.90;;;;;;5046081;28;20037;-75
2022/08/25 06:22:53;;;;;;;1999.90;999.90;;;19.20;99.90;;;;;;5070556;28;20048;-75
2022/08/25 06:25:21;;;;;;;1999.90;999.90;;;19.30;99.90;;;;;;5051898;28;20109;-74
2022/08/25 06:27:48;;;;;;;1999.90;999.90;;;19.40;99.90;;;;;;5069938;28;20397;-75
2022/08/25 06:30:18;;;;;;;1999.90;999.90;;;19.50;99.90;;;;;;5061494;28;20573;-74
2022/08/25 06:32:45;;;;;;;1999.90;999.90;;;19.60;99.90;;;;;;5052661;28;20058;-74
2022/08/25 06:35:15;;;;;;;1999.90;999.90;;;19.60;99.90;;;;;;5066130;28;20551;-74
2022/08/25 06:37:41;;;;;;;1999.90;999.90;;;19.70;99.90;;;;;;5059314;28;20035;-74
2022/08/25 06:40:08;;;;;;;1999.90;999.90;;;19.80;99.90;;;;;;5064639;28;20042;-74
2022/08/25 06:42:34;;;;;;;1999.90;999.90;;;19.90;99.90;;;;;;5052121;28;20036;-74
2022/08/25 06:45:00;;;;;;;1999.90;999.90;;;19.90;99.90;;;;;;5069076;28;20377;-74
2022/08/25 06:47:25;;;;;;;1999.90;999.90;;;20.00;99.90;;;;;;5065402;28;20036;-75
2022/08/25 06:49:51;;;;;;;1999.90;999.90;;;20.20;99.90;;;;;;5054214;28;20403;-75
2022/08/25 06:52:17;;;;;;;1999.90;999.90;;;20.40;99.90;;;;;;5057086;28;20040;-75
2022/08/25 06:54:42;;;;;;;1999.90;999.90;;;20.60;99.90;;;;;;5058449;28;20145;-75
2022/08/25 06:57:08;;;;;;;1999.90;999.90;;;20.60;99.90;;;;;;5066311;28;20534;-76
2022/08/25 06:59:35;;;;;;;1999.90;999.90;;;20.70;99.90;;;;;;5036544;28;20098;-75
2022/08/25 07:02:03;;;;;;;1999.90;999.90;;;20.90;99.90;;;;;;5046018;28;20051;-75
2022/08/25 07:04:29;;;;;;;1999.90;999.90;;;21.50;99.90;;;;;;5042878;28;20040;-75
2022/08/25 07:06:54;;;;;;;1999.90;999.90;;;21.80;99.90;;;;;;5038238;28;20503;-75
2022/08/25 07:09:20;;;;;;;1999.90;999.90;;;21.80;99.90;;;;;;5052572;28;20044;-75
2022/08/25 07:11:46;;;;;;;1999.90;999.90;;;21.70;99.90;;;;;;5061126;28;20046;-75
2022/08/25 07:14:15;;;;;;;1999.90;999.90;;;21.70;99.90;;;;;;5057698;28;20085;-75
2022/08/25 07:16:41;;;;;;;1999.90;999.90;;;21.70;99.90;;;;;;5052048;28;20040;-76
2022/08/25 07:19:07;;;;;;;1999.90;999.90;;;21.80;99.90;;;;;;5066683;28;20031;-76
2022/08/25 07:21:35;;;;;;;1999.90;999.90;;;21.80;99.90;;;;;;5044105;28;20040;-76
2022/08/25 07:24:05;;;;;;;1999.90;999.90;;;21.90;99.90;;;;;;5076371;28;20126;-76
2022/08/25 07:26:34;;;;;;;1999.90;999.90;;;22.10;99.90;;;;;;5067313;28;20072;-76
2022/08/25 07:29:04;;;;;;;1999.90;999.90;;;22.20;99.90;;;;;;5053450;28;20121;-75
2022/08/25 07:31:30;;;;;;;1999.90;999.90;;;22.30;99.90;;;;;;5079112;28;20401;-74
2022/08/25 07:36:41;;;;;;;1999.90;999.90;;;22.30;99.90;;;;;;5062345;28;20048;-77
2022/08/25 07:39:07;;;;;;;1999.90;999.90;;;22.40;99.90;;;;;;5045343;28;20047;-76
2022/08/25 07:41:37;;;;;;;1999.90;999.90;;;22.50;99.90;;;;;;5048175;28;20036;-75
2022/08/25 07:44:04;;;;;;;1999.90;999.90;;;22.40;99.90;;;;;;5050480;28;20489;-76
2022/08/25 07:46:29;;;;;;;1999.90;999.90;;;22.40;99.90;;;;;;5067559;28;20511;-75
2022/08/25 07:48:55;;;;;;;1999.90;999.90;;;22.40;99.90;;;;;;5069115;28;20047;-76
2022/08/25 07:51:21;;;;;;;1999.90;999.90;;;22.50;99.90;;;;;;5064471;28;20168;-75
2022/08/25 07:53:46;;;;;;;1999.90;999.90;;;22.60;99.90;;;;;;5059941;28;20039;-76
2022/08/25 07:56:14;;;;;;;1999.90;999.90;;;22.70;99.90;;;;;;5065725;28;20659;-76
2022/08/25 07:58:41;;;;;;;1999.90;999.90;;;22.80;99.90;;;;;;5064202;28;20590;-76
2022/08/25 08:01:23;;;;;;;1999.90;999.90;;;22.90;99.90;;;;;;5064338;28;20411;-75
2022/08/25 08:03:49;;;;;;;1999.90;999.90;;;23.10;99.90;;;;;;5066349;28;20051;-76
2022/08/25 08:06:19;;;;;;;1999.90;999.90;;;23.20;99.90;;;;;;5067010;28;20097;-76
2022/08/25 08:08:48;;;;;;;1999.90;999.90;;;23.30;99.90;;;;;;5052756;28;20115;-75
2022/08/25 08:11:18;;;;;;;1999.90;999.90;;;23.50;99.90;;;;;;5063247;28;20044;-75
2022/08/25 08:13:46;;;;;;;1999.90;999.90;;;23.50;99.90;;;;;;5062121;28;20116;-75
2022/08/25 08:16:14;;;;;;;1999.90;999.90;;;23.60;99.90;;;;;;5050508;28;20094;-75
2022/08/25 08:18:41;;;;;;;1999.90;999.90;;;23.60;99.90;;;;;;5063663;28;20475;-76
2022/08/25 08:21:14;;;;;;;1999.90;999.90;;;23.70;99.90;;;;;;5039961;28;20071;-76
2022/08/25 08:23:40;;;;;;;1999.90;999.90;;;23.70;99.90;;;;;;5062431;28;20049;-75
2022/08/25 08:26:06;;;;;;;1999.90;999.90;;;23.80;99.90;;;;;;5065727;28;20055;-75
2022/08/25 08:28:31;;;;;;;1999.90;999.90;;;23.90;99.90;;;;;;5064942;28;20040;-75
2022/08/25 08:30:57;;;;;;;1999.90;999.90;;;24.00;99.90;;;;;;5068925;28;20044;-75
2022/08/25 08:33:24;;;;;;;1999.90;999.90;;;24.10;99.90;;;;;;5040285;28;20040;-75
2022/08/25 08:35:58;;;;;;;1999.90;999.90;;;24.20;99.90;;;;;;5057078;28;20047;-74
2022/08/25 08:38:24;;;;;;;1999.90;999.90;;;24.30;99.90;;;;;;5044826;28;20044;-75
2022/08/25 08:44:43;;;;;;;1999.90;999.90;;;24.60;99.90;;;;;;5013345;28;20048;-75
2022/08/25 08:47:21;;;;;;;1999.90;999.90;;;25.30;99.90;;;;;;5061625;28;20096;-75
2022/08/25 08:49:46;;;;;;;1999.90;999.90;;;25.80;99.90;;;;;;5076359;28;20036;-76
2022/08/25 08:52:16;;;;;;;1999.90;999.90;;;26.10;99.90;;;;;;5059192;28;20537;-76
2022/08/25 08:54:45;;;;;;;1999.90;999.90;;;26.50;99.90;;;;;;5089502;28;20094;-76
2022/08/25 08:57:18;;;;;;;1999.90;999.90;;;26.80;99.90;;;;;;5073832;28;20047;-75
2022/08/25 08:59:50;;;;;;;1999.90;999.90;;;27.40;98.90;;;;;;5071232;28;20051;-76
2022/08/25 09:02:45;;;;;;;1999.90;999.90;;;28.20;98.00;;;;;;5074121;28;20444;-76
2022/08/25 09:05:13;;;;;;;1999.90;999.90;;;28.90;96.90;;;;;;5075274;28;20123;-76
2022/08/25 09:08:11;;;;;;;1999.90;999.90;;;29.50;95.00;;;;;;5070330;28;20052;-76
2022/08/25 09:10:58;;;;;;;1999.90;999.90;;;29.90;93.40;;;;;;4996332;28;20050;-76
2022/08/25 09:13:38;;;;;;;1999.90;999.90;;;30.30;92.30;;;;;;4993702;28;20048;-75
2022/08/25 09:16:57;;;;;;;1999.90;999.90;;;30.70;91.30;;;;;;4977176;28;20046;-76
2022/08/25 09:19:54;;;;;;;1999.90;999.90;;;31.10;90.40;;;;;;4978256;28;20525;-76
2022/08/25 09:22:38;;;;;;;1999.90;999.90;;;31.40;87.50;;;;;;4970028;28;20050;-75
2022/08/25 09:25:16;;;;;;;1999.90;999.90;;;31.60;86.10;;;;;;4977602;28;20054;-74
2022/08/25 09:28:18;;;;;;;1999.90;999.90;;;31.70;82.40;;;;;;4998129;28;20532;-75
2022/08/25 09:31:00;;;;;;;1999.90;999.90;;;31.70;79.20;;;;;;4988552;28;20521;-74
2022/08/25 09:33:28;;;;;;;1999.90;999.90;;;31.70;78.90;;;;;;4962118;28;20061;-74
2022/08/25 09:35:56;;;;;;;1999.90;999.90;;;31.80;77.50;;;;;;4980454;28;20133;-74
2022/08/25 09:38:22;;;;;;;1999.90;999.90;;;31.80;78.10;;;;;;4961546;28;20046;-74
2022/08/25 09:40:52;;;;;;;1999.90;999.90;;;32.00;79.10;;;;;;4978066;28;20053;-74
2022/08/25 09:43:37;;;;;;;1999.90;999.90;;;32.10;75.30;;;;;;4964821;28;20046;-74
2022/08/25 09:46:02;;;;;;;1999.90;999.90;;;32.00;74.30;;;;;;4986959;28;20116;-74
2022/08/25 09:48:50;;;;;;;1999.90;999.90;;;32.10;73.70;;;;;;5074565;28;20491;-74
2022/08/25 09:51:23;;;;;;;1999.90;999.90;;;32.10;70.50;;;;;;5058860;28;20044;-74
2022/08/25 09:54:11;;;;;;;1999.90;999.90;;;32.20;73.10;;;;;;5075032;28;20028;-74
2022/08/25 09:56:52;;;;;;;1999.90;999.90;;;32.40;71.20;;;;;;5075200;28;20040;-73
2022/08/25 09:59:35;;;;;;;1999.90;999.90;;;32.40;70.80;;;;;;5072058;28;20040;-73
2022/08/25 10:02:24;;;;;;;1999.90;999.90;;;32.50;70.20;;;;;;5075447;28;20522;-73
2022/08/25 10:04:51;;;;;;;1999.90;999.90;;;32.60;68.60;;;;;;5047994;28;20083;-74
2022/08/25 10:07:29;;;;;;;1999.90;999.90;;;32.50;68.30;;;;;;5056265;28;20036;-74
2022/08/25 10:09:58;;;;;;;1999.90;999.90;;;32.50;68.80;;;;;;5058181;28;20086;-74
2022/08/25 10:12:29;;;;;;;1999.90;999.90;;;32.60;67.60;;;;;;5072412;28;20047;-73
2022/08/25 10:14:55;;;;;;;;;;;32.60;67.70;;;;;;5072245;28;20043;-73
2022/08/25 10:17:27;;;;;;;1999.90;999.90;;;32.60;66.20;;;;;;5073652;28;19928;-73
2022/08/25 10:20:10;;;;;;;1999.90;999.90;;;32.50;65.10;;;;;;5052131;28;20090;-73
2022/08/25 10:22:39;;;;;;;1999.90;999.90;;;32.40;63.10;;;;;;5055902;28;20420;-73
2022/08/25 10:25:07;;;;;;;1999.90;999.90;;;32.30;62.10;;;;;;5053904;28;20028;-74
2022/08/25 10:28:12;;;;;;;1999.90;999.90;;;32.20;61.10;;;;;;5064707;28;20119;-73
2022/08/25 10:31:09;;;;;;;1999.90;999.90;;;32.00;61.00;;;;;;5040774;28;20097;-73
2022/08/25 10:34:13;;;;;;;1999.90;999.90;;;31.90;62.00;;;;;;5067927;28;20044;-73
2022/08/25 10:36:53;;;;;;;1999.90;999.90;;;31.90;61.50;;;;;;5062845;28;20174;-73
2022/08/25 10:39:41;;;;;;;1999.90;999.90;;;31.90;59.70;;;;;;5058602;28;20450;-73
2022/08/25 10:42:25;;;;;;;1999.90;999.90;;;32.00;60.90;;;;;;5057919;28;20080;-73
2022/08/25 10:48:24;;;;;;;1999.90;999.90;;;32.00;62.20;;;;;;5058412;28;20040;-73
2022/08/25 10:51:00;;;;;;;1999.90;999.90;;;32.20;61.10;;;;;;5071649;28;20162;-73
2022/08/25 10:54:04;;;;;;;1999.90;999.90;;;32.20;60.10;;;;;;5068858;28;20441;-73
2022/08/25 10:56:36;;;;;;;1999.90;999.90;;;32.40;59.20;;;;;;5065269;28;20065;-73
2022/08/25 10:59:36;;;;;;;1999.90;999.90;;;32.40;59.70;;;;;;5059554;28;20114;-73
2022/08/25 11:02:37;;;;;;;1999.90;999.90;;;32.50;58.90;;;;;;5056252;28;20066;-73
2022/08/25 11:05:54;;;;;;;1999.90;999.90;;;32.60;59.50;;;;;;5065842;28;20427;-74
2022/08/25 11:08:33;;;;;;;1999.90;999.90;;;32.60;58.40;;;;;;4977661;28;20042;-73
2022/08/25 11:11:20;;;;;;;1999.90;999.90;;;32.70;56.30;;;;;;4966427;28;20109;-75
2022/08/25 11:13:51;;;;;;;1999.90;999.90;;;32.60;57.60;;;;;;4982829;28;20053;-73
2022/08/25 11:16:27;;;;;;;1999.90;999.90;;;32.70;55.80;;;;;;4985707;28;20082;-74
2022/08/25 11:19:05;;;;;;;1999.90;999.90;;;32.70;58.00;;;;;;4989937;28;20054;-73
2022/08/25 11:21:50;;;;;;;1999.90;999.90;;;32.80;57.90;;;;;;5008432;28;20038;-74
2022/08/25 11:24:32;;;;;;;1999.90;999.90;;;32.80;57.20;;;;;;4987563;28;20084;-75
2022/08/25 11:26:59;;;;;;;1999.90;999.90;;;32.90;57.50;;;;;;4992614;28;20133;-73
2022/08/25 11:29:31;;;;;;;1999.90;999.90;;;32.90;57.30;;;;;;4970540;28;20050;-72
2022/08/25 11:31:57;;;;;;;;;;;33.10;57.40;;;;;;4977775;28;20439;-73
2022/08/25 11:34:26;;;;;;;1999.90;999.90;;;33.10;56.30;;;;;;4990161;28;19921;-73
2022/08/25 11:37:26;;;;;;;1999.90;999.90;;;33.10;56.20;;;;;;4988686;28;20053;-73
2022/08/25 11:40:51;;;;;;;1999.90;999.90;;;33.10;56.20;;;;;;5003435;28;20138;-73
2022/08/25 11:43:44;;;;;;;1999.90;999.90;;;33.10;55.90;;;;;;4939908;28;20043;-73
2022/08/25 11:46:31;;;;;;;1999.90;999.90;;;33.10;56.30;;;;;;4949690;28;20506;-73
2022/08/25 11:49:15;;;;;;;1999.90;999.90;;;33.20;56.80;;;;;;4964112;28;20094;-73
2022/08/25 11:51:49;;;;;;;1999.90;999.90;;;33.10;54.70;;;;;;4950752;28;20466;-73
2022/08/25 11:54:26;;;;;;;1999.90;999.90;;;33.10;55.20;;;;;;4943071;28;20051;-73
2022/08/25 11:57:16;;;;;;;1999.90;999.90;;;33.10;55.20;;;;;;4970813;28;21376;-73
2022/08/25 11:59:51;;;;;;;1999.90;999.90;;;33.10;54.50;;;;;;4934641;28;20046;-73
2022/08/25 12:02:49;;;;;;;1999.90;999.90;;;33.30;56.20;;;;;;4956912;28;20635;-74
2022/08/25 12:05:23;;;;;;;1999.90;999.90;;;33.40;54.70;;;;;;4956299;28;20046;-73
2022/08/25 12:10:57;;;;;;;1999.90;999.90;;;33.40;54.30;;;;;;4951816;28;20066;-73
2022/08/25 12:13:46;;;;;;;1999.90;999.90;;;33.30;53.60;;;;;;5013925;28;20432;-76
2022/08/25 12:16:35;;;;;;;1999.90;999.90;;;33.40;52.60;;;;;;5072443;28;20510;-73
2022/08/25 12:19:40;;;;;;;1999.90;999.90;;;33.40;52.80;;;;;;5060442;28;20365;-73
2022/08/25 12:22:05;;;;;;;1999.90;999.90;;;33.40;54.10;;;;;;5062003;28;20416;-73
2022/08/25 12:24:54;;;;;;;1999.90;999.90;;;33.40;53.40;;;;;;5054417;28;20047;-73
2022/08/25 12:27:26;;;;;;;1999.90;999.90;;;33.50;54.10;;;;;;5052526;28;20047;-73
2022/08/25 12:30:18;;;;;;;1999.90;999.90;;;33.60;53.70;;;;;;5070237;28;20094;-72
2022/08/25 12:32:57;;;;;;;1999.90;999.90;;;33.60;51.70;;;;;;5097813;27;20469;-73
2022/08/25 12:35:36;;;;;;;1999.90;999.90;;;33.60;53.30;;;;;;5100508;27;20512;-73
2022/08/25 12:38:07;;;;;;;1999.90;999.90;;;33.60;54.50;;;;;;5094922;27;20031;-73